Terminal Aerodrome Forecast
Issued by NWS Indianapolis, IN

Home | Current Version | Previous Version | Text Only | Print | Product List | Glossary On
Versions: 1 2 3 4 5 6 7 8 9 10 11 12 13 14 15 16 17 18 19 20 21 22 23 24 25 26 27 28
355
FTUS43 KIND 201121
TAFIND
TAF
KIND 201121Z 2012/2118 12004KT 1/4SM FG VV002
     FM201400 13005KT 1/2SM FG BKN008
     FM201500 13006KT 1 1/2SM BR BKN008
     FM201600 13007KT P6SM BKN015
     FM201800 14008KT P6SM SCT040
     FM211100 20006KT P6SM OVC030
     FM211300 21006KT 4SM -SHRA OVC015=

USA.gov is the U.S. government's official web portal to all federal, state and local government web resources and services.